Terminal Aerodrome Forecast
Issued by NWS Sioux Falls, SD

Home | Current Version | Previous Version | Graphics & Text | Print | Product List | Glossary On
Versions: 1 2 3 4 5 6 7 8 9 10 11 12 13 14 15 16 17
000
FTUS43 KFSD 260209 AAA
TAFSUX
TAF AMD
KSUX 260209Z 2602/2624 34015KT P6SM -SHRA OVC012
     FM260600 33013G20KT P6SM OVC008
     FM261500 32017G26KT P6SM OVC010
     FM261900 33016G24KT P6SM OVC020=

USA.gov is the U.S. government's official web portal to all federal, state and local government web resources and services.